Time;durP1;ratioP1;P1;durP2;ratioP2;P2;SDS_P1;SDS_P2;PMS_P1;PMS_P2;Temp;Humidity;BMP_temperature;BMP_pressure;BME280_temperature;BME280_humidity;BME280_pressure;Samples;Min_cycle;Max_cycle;Signal;HPM_P1;HPM_P2
2023/12/31 00:00:30;;;;;;;0.20;0.20;;;;;;;8.07;100.00;100281.31;5092835;28;20031;-58
2023/12/31 00:02:56;;;;;;;0.30;0.30;;;;;;;8.09;100.00;100277.06;5092481;28;20098;-57
2023/12/31 00:05:21;;;;;;;0.35;0.35;;;;;;;8.15;100.00;100264.44;5092715;28;20024;-57
2023/12/31 00:07:46;;;;;;;0.20;0.20;;;;;;;8.16;100.00;100258.47;5093023;28;20095;-57
2023/12/31 00:10:12;;;;;;;0.28;0.28;;;;;;;8.17;100.00;100249.97;5091793;28;20024;-58
2023/12/31 00:12:37;;;;;;;0.30;0.30;;;;;;;8.16;100.00;100247.31;5092780;28;20031;-58
2023/12/31 00:15:06;;;;;;;0.30;0.30;;;;;;;8.12;100.00;100241.25;5092818;28;20036;-58
2023/12/31 00:17:31;;;;;;;0.20;0.20;;;;;;;8.17;100.00;100239.69;5092116;28;20024;-58
2023/12/31 00:19:56;;;;;;;0.30;0.30;;;;;;;8.21;100.00;100236.38;5092645;28;20050;-58
2023/12/31 00:22:22;;;;;;;0.22;0.22;;;;;;;8.20;100.00;100226.94;5092538;28;20509;-58
2023/12/31 00:24:51;;;;;;;0.30;0.30;;;;;;;8.23;100.00;100223.59;5092349;28;20081;-57
2023/12/31 00:27:16;;;;;;;0.20;0.20;;;;;;;8.26;100.00;100212.53;5092298;28;20024;-58
2023/12/31 00:29:41;;;;;;;0.20;0.20;;;;;;;8.26;100.00;100207.41;5092632;28;20378;-58
2023/12/31 00:32:07;;;;;;;0.20;0.20;;;;;;;8.24;100.00;100215.94;5092304;28;20039;-58
2023/12/31 00:34:32;;;;;;;0.30;0.30;;;;;;;8.27;100.00;100204.03;5091973;28;20024;-58
2023/12/31 00:36:57;;;;;;;0.20;0.20;;;;;;;8.26;100.00;100204.84;5092975;28;20099;-58
2023/12/31 00:39:22;;;;;;;0.30;0.30;;;;;;;8.30;100.00;100194.72;5092018;28;20024;-58
2023/12/31 00:41:48;;;;;;;0.22;0.22;;;;;;;8.30;100.00;100189.56;5092309;28;20044;-58
2023/12/31 00:44:13;;;;;;;0.30;0.30;;;;;;;8.34;100.00;100182.81;5092463;28;20146;-58
2023/12/31 00:46:38;;;;;;;0.20;0.20;;;;;;;8.37;100.00;100177.78;5092035;28;20062;-58
2023/12/31 00:49:03;;;;;;;0.25;0.25;;;;;;;8.37;100.00;100159.81;5091990;28;20055;-58
2023/12/31 00:51:29;;;;;;;0.20;0.20;;;;;;;8.39;100.00;100160.69;5092329;28;20118;-58
2023/12/31 00:53:54;;;;;;;0.30;0.30;;;;;;;8.39;100.00;100159.00;5092072;28;20028;-58
2023/12/31 00:56:19;;;;;;;0.28;0.28;;;;;;;8.38;100.00;100157.28;5092167;28;20024;-58
2023/12/31 00:58:45;;;;;;;0.30;0.30;;;;;;;8.36;100.00;100164.03;5092721;28;20024;-57
2023/12/31 01:01:10;;;;;;;0.20;0.20;;;;;;;8.35;100.00;100161.44;5091284;28;20410;-58
2023/12/31 01:03:35;;;;;;;0.20;0.20;;;;;;;8.31;100.00;100160.47;5092165;28;20032;-57
2023/12/31 01:06:05;;;;;;;0.22;0.22;;;;;;;8.33;100.00;100163.13;5092175;28;20448;-58
2023/12/31 01:08:30;;;;;;;0.30;0.30;;;;;;;8.31;100.00;100159.63;5092207;28;20032;-58
2023/12/31 01:10:55;;;;;;;0.30;0.30;;;;;;;8.28;100.00;100146.72;5092165;28;20116;-58
2023/12/31 01:13:21;;;;;;;0.20;0.20;;;;;;;8.24;100.00;100149.19;5091683;28;20016;-58
2023/12/31 01:15:46;;;;;;;0.30;0.30;;;;;;;8.20;100.00;100139.66;5096322;28;20020;-58
2023/12/31 01:18:11;;;;;;;0.30;0.30;;;;;;;8.21;100.00;100132.81;5095649;28;20110;-57
2023/12/31 01:20:37;;;;;;;0.30;0.30;;;;;;;8.21;100.00;100123.44;5095613;28;20034;-58
2023/12/31 01:23:02;;;;;;;0.20;0.20;;;;;;;8.22;100.00;100129.44;5095922;28;20032;-58
2023/12/31 01:25:27;;;;;;;0.22;0.22;;;;;;;8.21;100.00;100118.31;5095947;28;20024;-58
2023/12/31 01:27:55;;;;;;;0.22;0.22;;;;;;;8.20;100.00;100110.56;5095673;28;20024;-58
2023/12/31 01:30:20;;;;;;;;;;;;;;;8.24;100.00;100113.25;5095929;28;20031;-58
2023/12/31 01:32:45;;;;;;;0.20;0.20;;;;;;;8.16;100.00;100099.34;5095914;28;20291;-58
2023/12/31 01:35:11;;;;;;;0.30;0.30;;;;;;;8.16;100.00;100104.47;5095351;28;20114;-57
2023/12/31 01:37:36;;;;;;;0.20;0.20;;;;;;;8.17;100.00;100101.09;5095524;28;20103;-58
2023/12/31 01:40:02;;;;;;;0.20;0.20;;;;;;;8.21;100.00;100099.44;5095849;28;20047;-58
2023/12/31 01:42:27;;;;;;;0.20;0.20;;;;;;;8.21;100.00;100092.63;5094843;28;20360;-58
2023/12/31 01:44:52;;;;;;;0.30;0.30;;;;;;;8.22;100.00;100084.13;5095552;28;20028;-58
2023/12/31 01:47:18;;;;;;;0.30;0.30;;;;;;;8.22;100.00;100084.13;5095089;28;20066;-58
2023/12/31 01:49:43;;;;;;;0.30;0.30;;;;;;;8.23;100.00;100079.84;5094410;28;20111;-58
2023/12/31 01:52:09;;;;;;;0.30;0.30;;;;;;;8.20;100.00;100075.50;5095440;28;20107;-58
2023/12/31 01:54:35;;;;;;;0.22;0.22;;;;;;;8.23;100.00;100061.88;5095212;28;20028;-57
2023/12/31 01:57:01;;;;;;;0.30;0.30;;;;;;;8.22;100.00;100070.38;5094879;28;20472;-58
2023/12/31 01:59:26;;;;;;;0.30;0.30;;;;;;;8.19;100.00;100068.59;5094966;28;20028;-58
2023/12/31 02:01:52;;;;;;;0.30;0.30;;;;;;;8.20;100.00;100049.81;5095026;28;20520;-57
2023/12/31 02:04:20;;;;;;;0.30;0.30;;;;;;;8.20;100.00;100049.81;5094475;28;20031;-58
2023/12/31 02:06:45;;;;;;;;;;;;;;;8.27;100.00;100050.84;5095476;28;20162;-57
2023/12/31 02:09:10;;;;;;;0.30;0.30;;;;;;;8.20;100.00;100049.81;5094775;28;20434;-57
2023/12/31 02:11:36;;;;;;;0.30;0.30;;;;;;;8.15;100.00;100056.53;5114231;28;20273;-57
2023/12/31 02:14:02;;;;;;;0.30;0.30;;;;;;;8.15;100.00;100040.28;5115379;28;20027;-57
2023/12/31 02:16:27;;;;;;;0.30;0.30;;;;;;;8.08;100.00;100037.53;5114574;28;20030;-58
2023/12/31 02:18:53;;;;;;;0.30;0.30;;;;;;;8.11;100.00;100023.03;5115379;28;20115;-57
2023/12/31 02:21:19;;;;;;;0.30;0.30;;;;;;;8.10;100.00;100023.88;5115092;28;20102;-58
2023/12/31 02:23:45;;;;;;;0.30;0.30;;;;;;;8.10;100.00;100016.19;5115065;28;20098;-58
2023/12/31 02:26:11;;;;;;;0.30;0.30;;;;;;;8.09;100.00;100015.28;5113628;28;20126;-58
2023/12/31 02:28:37;;;;;;;0.30;0.30;;;;;;;8.07;100.00;100001.56;5115271;28;20023;-58
2023/12/31 02:31:04;;;;;;;0.20;0.20;;;;;;;8.03;100.00;100003.19;5114721;28;20031;-58
2023/12/31 02:33:29;;;;;;;0.20;0.20;;;;;;;8.04;100.00;99996.34;5114905;28;20031;-57
2023/12/31 02:35:54;;;;;;;0.30;0.30;;;;;;;8.03;100.00;99986.91;5115136;28;20509;-58
2023/12/31 02:38:20;;;;;;;0.20;0.20;;;;;;;8.05;100.00;99985.25;5114265;28;20418;-58
2023/12/31 02:40:45;;;;;;;0.30;0.30;;;;;;;8.06;100.00;99974.16;5114743;28;20020;-58
2023/12/31 02:43:11;;;;;;;0.30;0.30;;;;;;;8.08;100.00;99967.34;5114610;28;20034;-58
2023/12/31 02:45:36;;;;;;;0.30;0.30;;;;;;;8.05;100.00;99957.03;5114484;28;20024;-57
2023/12/31 02:48:02;;;;;;;0.20;0.20;;;;;;;8.05;100.00;99957.03;5114475;28;20027;-58
2023/12/31 02:50:27;;;;;;;0.30;0.30;;;;;;;8.02;100.00;99947.56;5114566;28;20019;-58
2023/12/31 02:52:53;;;;;;;0.30;0.30;;;;;;;7.98;100.00;99939.72;5114246;28;20094;-57
2023/12/31 02:55:19;;;;;;;0.30;0.30;;;;;;;7.98;100.00;99930.34;5114327;28;20043;-58
2023/12/31 02:57:45;;;;;;;0.30;0.30;;;;;;;7.96;100.00;99926.88;5114748;28;20066;-58
2023/12/31 03:00:10;;;;;;;0.30;0.30;;;;;;;7.97;100.00;99923.47;5113151;28;20145;-58
2023/12/31 03:02:36;;;;;;;0.30;0.30;;;;;;;7.98;100.00;99927.78;5114199;28;20478;-58
2023/12/31 03:05:02;;;;;;;0.30;0.30;;;;;;;8.02;100.00;99923.59;5114570;28;20524;-58
2023/12/31 03:07:27;;;;;;;0.30;0.30;;;;;;;8.02;100.00;99913.34;5113729;28;20023;-58
2023/12/31 03:09:52;;;;;;;0.30;0.30;;;;;;;7.99;100.00;99914.13;5114363;28;20019;-58
2023/12/31 03:12:18;;;;;;;0.30;0.30;;;;;;;7.96;100.00;99915.75;5114063;28;20024;-58
2023/12/31 03:14:43;;;;;;;0.25;0.25;;;;;;;7.90;100.00;99907.06;5113899;28;20030;-58
2023/12/31 03:17:08;;;;;;;0.30;0.30;;;;;;;7.89;100.00;99905.31;5113870;28;20028;-58
2023/12/31 03:19:35;;;;;;;0.20;0.20;;;;;;;7.86;100.00;99905.25;5113216;28;20032;-58
2023/12/31 03:22:01;;;;;;;0.30;0.30;;;;;;;7.84;100.00;99891.50;5114126;28;20033;-57
2023/12/31 03:24:27;;;;;;;0.30;0.30;;;;;;;7.83;100.00;99876.94;5113907;28;20370;-58
2023/12/31 03:26:52;;;;;;;0.30;0.30;;;;;;;7.82;100.00;99866.66;5113629;28;20030;-58
2023/12/31 03:29:18;;;;;;;0.30;0.30;;;;;;;7.80;100.00;99860.59;5113957;28;20028;-58
2023/12/31 03:31:43;;;;;;;0.20;0.20;;;;;;;7.76;100.00;99857.13;5113604;28;20042;-58
2023/12/31 03:34:08;;;;;;;0.30;0.30;;;;;;;7.72;100.00;99845.91;5113638;28;20020;-58
2023/12/31 03:36:34;;;;;;;0.28;0.28;;;;;;;7.72;100.00;99839.88;5112829;28;20019;-58
2023/12/31 03:38:59;;;;;;;0.20;0.20;;;;;;;7.73;100.00;99831.38;5113753;28;20031;-58
2023/12/31 03:41:25;;;;;;;0.30;0.30;;;;;;;7.74;100.00;99822.84;5112959;28;20035;-58
2023/12/31 03:43:50;;;;;;;0.30;0.30;;;;;;;7.74;100.00;99807.47;5113614;28;20042;-58
2023/12/31 03:46:16;;;;;;;0.30;0.30;;;;;;;7.75;100.00;99811.78;5113279;28;20024;-58
2023/12/31 03:48:41;;;;;;;0.30;0.30;;;;;;;7.78;100.00;99804.13;5112924;28;20107;-58
2023/12/31 03:51:08;;;;;;;0.30;0.30;;;;;;;7.78;100.00;99788.75;5113217;28;20036;-58
2023/12/31 03:53:33;;;;;;;0.20;0.20;;;;;;;7.72;100.00;99784.34;5113446;28;20019;-58
2023/12/31 03:55:58;;;;;;;0.30;0.30;;;;;;;7.76;100.00;99785.31;5112974;28;20322;-58
2023/12/31 03:58:24;;;;;;;0.30;0.30;;;;;;;7.74;100.00;99781.81;5112960;28;20030;-57
2023/12/31 04:00:49;;;;;;;0.28;0.28;;;;;;;7.73;100.00;99775.84;5113377;28;20498;-58
2023/12/31 04:03:14;;;;;;;0.30;0.30;;;;;;;7.74;100.00;99772.41;5112866;28;20023;-57
2023/12/31 04:05:40;;;;;;;0.30;0.30;;;;;;;7.74;100.00;99764.72;5113660;28;20046;-57
2023/12/31 04:08:05;;;;;;;0.20;0.20;;;;;;;7.73;100.00;99759.56;5113512;28;20375;-57
2023/12/31 04:10:30;;;;;;;0.30;0.30;;;;;;;7.76;100.00;99749.38;5112396;28;20051;-58
2023/12/31 04:12:56;;;;;;;0.30;0.30;;;;;;;7.75;100.00;99757.91;5113150;28;20020;-58
2023/12/31 04:15:21;;;;;;;0.30;0.30;;;;;;;7.75;100.00;99737.38;5112939;28;20054;-57
2023/12/31 04:17:46;;;;;;;0.30;0.30;;;;;;;7.71;100.00;99746.69;5112927;28;20088;-58
2023/12/31 04:20:12;;;;;;;0.20;0.20;;;;;;;7.70;100.00;99732.13;5112992;28;20030;-58
2023/12/31 04:22:37;;;;;;;0.20;0.20;;;;;;;7.65;100.00;99730.31;5113077;28;20388;-58
2023/12/31 04:25:02;;;;;;;0.30;0.30;;;;;;;7.63;100.00;99731.97;5112764;28;20050;-58
2023/12/31 04:27:30;;;;;;;0.30;0.30;;;;;;;7.64;100.00;99715.75;5112672;28;20023;-58
2023/12/31 04:29:55;;;;;;;0.20;0.20;;;;;;;7.65;100.00;99714.94;5112858;28;20110;-58
2023/12/31 04:32:20;;;;;;;0.30;0.30;;;;;;;7.63;100.00;99706.31;5112298;28;20038;-58
2023/12/31 04:34:46;;;;;;;0.30;0.30;;;;;;;7.66;100.00;99702.13;5112606;28;20111;-58
2023/12/31 04:37:11;;;;;;;0.30;0.30;;;;;;;7.67;100.00;99713.25;5112281;28;20027;-58
2023/12/31 04:39:36;;;;;;;0.20;0.20;;;;;;;7.63;100.00;99696.06;5112898;28;20491;-58
2023/12/31 04:42:03;;;;;;;0.20;0.20;;;;;;;7.62;100.00;99709.72;5112948;28;20030;-58
2023/12/31 04:44:28;;;;;;;0.30;0.30;;;;;;;7.58;100.00;99694.25;5112344;28;20031;-58
2023/12/31 04:46:53;;;;;;;0.30;0.30;;;;;;;7.57;100.00;99692.53;5112707;28;20028;-58
2023/12/31 04:49:19;;;;;;;0.20;0.20;;;;;;;7.57;100.00;99695.09;5114230;28;20047;-58
2023/12/31 04:51:44;;;;;;;0.30;0.30;;;;;;;7.55;100.00;99683.94;5116616;28;20459;-58
2023/12/31 04:54:09;;;;;;;0.20;0.20;;;;;;;7.53;100.00;99675.34;5116577;28;20697;-58
2023/12/31 04:56:35;;;;;;;0.22;0.22;;;;;;;7.53;100.00;99679.63;5117164;28;20499;-58
2023/12/31 04:59:00;;;;;;;0.30;0.30;;;;;;;7.55;100.00;99673.69;5116346;28;20414;-58
2023/12/31 05:01:31;;;;;;;0.30;0.30;;;;;;;7.56;100.00;99660.00;5116570;28;20042;-58
2023/12/31 05:03:58;;;;;;;0.30;0.30;;;;;;;7.60;100.00;99649.84;5116688;28;20047;-57
2023/12/31 05:06:23;;;;;;;0.20;0.20;;;;;;;7.60;100.00;99649.84;5116335;28;20038;-58
2023/12/31 05:08:49;;;;;;;0.30;0.30;;;;;;;7.62;100.00;99632.78;5116820;28;20024;-58
2023/12/31 05:11:14;;;;;;;0.20;0.20;;;;;;;7.65;100.00;99643.97;5116829;28;20015;-58
2023/12/31 05:13:41;;;;;;;0.30;0.30;;;;;;;7.65;100.00;99635.44;5116145;28;20099;-58
2023/12/31 05:16:07;;;;;;;0.25;0.25;;;;;;;7.67;100.00;99626.06;5116569;28;20417;-58
2023/12/31 05:18:33;;;;;;;0.30;0.30;;;;;;;7.74;100.00;99623.66;5116613;28;20016;-58
2023/12/31 05:21:02;;;;;;;0.30;0.30;;;;;;;7.74;100.00;99626.22;5115566;28;20081;-58
2023/12/31 05:23:30;;;;;;;0.30;0.30;;;;;;;7.80;100.00;99610.13;5115883;28;20467;-58
2023/12/31 05:25:55;;;;;;;0.28;0.28;;;;;;;7.81;100.00;99609.28;5116474;28;20031;-58
2023/12/31 05:28:20;;;;;;;0.30;0.30;;;;;;;7.81;100.00;99599.03;5115524;28;20023;-58
2023/12/31 05:30:46;;;;;;;0.30;0.30;;;;;;;7.82;100.00;99597.31;5116467;28;20417;-58
2023/12/31 05:33:11;;;;;;;0.30;0.30;;;;;;;7.80;100.00;99581.91;5116003;28;20020;-58
2023/12/31 05:35:36;;;;;;;0.40;0.40;;;;;;;7.85;100.00;99599.94;5115879;28;20027;-58
2023/12/31 05:38:02;;;;;;;0.22;0.22;;;;;;;7.85;100.00;99590.56;5116316;28;20028;-58
2023/12/31 05:40:27;;;;;;;0.30;0.30;;;;;;;7.82;100.00;99580.22;5115330;28;20032;-58
2023/12/31 05:42:52;;;;;;;0.20;0.20;;;;;;;7.79;100.00;99569.91;5115973;28;20434;-58
2023/12/31 05:45:18;;;;;;;0.20;0.20;;;;;;;7.79;100.00;99572.47;5116063;28;20030;-58
2023/12/31 05:47:44;;;;;;;0.30;0.30;;;;;;;7.84;100.00;99580.25;5115893;28;20092;-57
2023/12/31 05:50:10;;;;;;;0.30;0.30;;;;;;;7.84;100.00;99573.44;5094133;28;20521;-58
2023/12/31 05:52:35;;;;;;;0.22;0.22;;;;;;;7.86;100.00;99561.50;5095230;28;20534;-58
2023/12/31 05:55:00;;;;;;;0.20;0.20;;;;;;;7.84;100.00;99555.47;5095013;28;20028;-58
2023/12/31 05:57:26;;;;;;;0.30;0.30;;;;;;;7.84;100.00;99555.47;5094904;28;20382;-57
2023/12/31 05:59:51;;;;;;;0.30;0.30;;;;;;;7.84;100.00;99550.34;5095480;28;20505;-58
2023/12/31 06:02:16;;;;;;;0.38;0.38;;;;;;;7.82;100.00;99548.56;5094468;28;20039;-58
2023/12/31 06:04:42;;;;;;;0.30;0.30;;;;;;;7.84;100.00;99555.47;5095193;28;20032;-58
2023/12/31 06:07:07;;;;;;;0.30;0.30;;;;;;;7.86;100.00;99555.50;5095303;28;20031;-58
2023/12/31 06:09:33;;;;;;;0.20;0.20;;;;;;;7.86;100.00;99543.56;5094385;28;20050;-58
2023/12/31 06:11:58;;;;;;;0.20;0.20;;;;;;;7.89;100.00;99537.63;5095026;28;20380;-58
2023/12/31 06:14:23;;;;;;;0.30;0.30;;;;;;;7.90;100.00;99542.78;5094994;28;20102;-58
2023/12/31 06:16:49;;;;;;;0.30;0.30;;;;;;;7.90;100.00;99537.63;5094773;28;20028;-58
2023/12/31 06:19:14;;;;;;;0.30;0.30;;;;;;;7.84;100.00;99527.25;5094401;28;20024;-58
2023/12/31 06:21:39;;;;;;;0.20;0.20;;;;;;;7.88;100.00;99529.03;5094759;28;20040;-58
2023/12/31 06:24:05;;;;;;;0.30;0.30;;;;;;;7.87;100.00;99522.16;5094530;28;20016;-57
2023/12/31 06:26:30;;;;;;;0.30;0.30;;;;;;;7.84;100.00;99513.56;5094382;28;20031;-58
2023/12/31 06:28:55;;;;;;;0.30;0.30;;;;;;;7.80;100.00;99510.09;5095210;28;20480;-58
2023/12/31 06:31:20;;;;;;;0.30;0.30;;;;;;;7.76;100.00;99505.72;5094108;28;20036;-58
2023/12/31 06:33:46;;;;;;;0.30;0.30;;;;;;;7.78;100.00;99511.75;5094574;28;20020;-58
2023/12/31 06:36:11;;;;;;;0.30;0.30;;;;;;;7.81;100.00;99506.69;5094390;28;20039;-58
2023/12/31 06:38:36;;;;;;;0.22;0.22;;;;;;;7.80;100.00;99496.38;5094152;28;20392;-58
2023/12/31 06:41:08;;;;;;;0.20;0.20;;;;;;;7.82;100.00;99503.25;5094133;28;20101;-58
2023/12/31 06:43:36;;;;;;;0.30;0.30;;;;;;;7.80;100.00;99489.56;5093892;28;20480;-58
2023/12/31 06:46:03;;;;;;;0.30;0.30;;;;;;;7.82;100.00;99481.88;5094512;28;20039;-58
2023/12/31 06:48:28;;;;;;;0.30;0.30;;;;;;;7.81;100.00;99475.03;5094104;28;20036;-58
2023/12/31 06:50:53;;;;;;;0.30;0.30;;;;;;;7.81;100.00;99470.78;5094219;28;20028;-58
2023/12/31 06:53:19;;;;;;;0.20;0.20;;;;;;;7.79;100.00;99461.31;5094081;28;20039;-58
2023/12/31 06:55:44;;;;;;;0.30;0.30;;;;;;;7.80;100.00;99457.91;5094504;28;20028;-58
2023/12/31 06:58:10;;;;;;;0.20;0.20;;;;;;;7.80;100.00;99458.78;5093838;28;20429;-58
2023/12/31 07:00:35;;;;;;;0.30;0.30;;;;;;;7.88;100.00;99467.47;5094025;28;20024;-57
2023/12/31 07:03:01;;;;;;;0.20;0.20;;;;;;;7.91;100.00;99449.59;5094445;28;20035;-57
2023/12/31 07:05:26;;;;;;;0.30;0.30;;;;;;;7.93;100.00;99449.59;5093575;28;20039;-58
2023/12/31 07:07:51;;;;;;;0.30;0.30;;;;;;;7.93;100.00;99435.91;5094057;28;20024;-58
2023/12/31 07:10:17;;;;;;;0.30;0.30;;;;;;;8.00;100.00;99440.31;5093830;28;20524;-58
2023/12/31 07:12:42;;;;;;;0.25;0.25;;;;;;;8.10;100.00;99447.31;5093182;28;20024;-58
2023/12/31 07:15:09;;;;;;;0.20;0.20;;;;;;;8.18;100.00;99443.19;5094095;28;20056;-58
2023/12/31 07:17:34;;;;;;;0.30;0.30;;;;;;;8.20;100.00;99433.81;5093868;28;20486;-58
2023/12/31 07:20:02;;;;;;;0.30;0.30;;;;;;;8.25;100.00;99426.19;5093498;28;20069;-58
2023/12/31 07:22:28;;;;;;;0.20;0.20;;;;;;;8.25;100.00;99418.50;5093154;28;20067;-58
2023/12/31 07:24:53;;;;;;;0.30;0.30;;;;;;;8.30;100.00;99416.88;5093789;28;20051;-58
2023/12/31 07:27:18;;;;;;;0.30;0.30;;;;;;;8.37;100.00;99410.13;5092824;28;20491;-58
2023/12/31 07:29:43;;;;;;;0.30;0.30;;;;;;;8.41;100.00;99409.31;5093497;28;20020;-58
2023/12/31 07:32:09;;;;;;;0.20;0.20;;;;;;;8.47;100.00;99404.31;5093733;28;20024;-58
2023/12/31 07:34:34;;;;;;;0.30;0.30;;;;;;;8.47;100.00;99396.63;5092870;28;20107;-57
2023/12/31 07:36:59;;;;;;;0.30;0.30;;;;;;;8.53;100.00;99394.13;5093523;28;20059;-58
2023/12/31 07:39:26;;;;;;;0.30;0.30;;;;;;;8.58;100.00;99394.19;5093198;28;20024;-57
2023/12/31 07:41:51;;;;;;;0.30;0.30;;;;;;;8.64;100.00;99383.16;5092904;28;20031;-58
2023/12/31 07:44:18;;;;;;;0.30;0.30;;;;;;;8.71;100.00;99390.97;5074944;28;20027;-58
2023/12/31 07:46:43;;;;;;;0.30;0.30;;;;;;;8.72;100.00;99386.69;5093402;28;20394;-57
2023/12/31 07:49:08;;;;;;;0.25;0.25;;;;;;;8.77;100.00;99385.03;5092369;28;20048;-58
2023/12/31 07:51:34;;;;;;;0.20;0.20;;;;;;;8.78;100.00;99375.59;5093080;28;20047;-57
2023/12/31 07:53:59;;;;;;;0.30;0.30;;;;;;;8.84;100.00;99373.97;5092590;28;20107;-58
2023/12/31 07:56:24;;;;;;;0.20;0.20;;;;;;;8.85;100.00;99373.16;5092929;28;20522;-58
2023/12/31 07:58:49;;;;;;;0.30;0.30;;;;;;;8.91;100.00;99356.97;5093423;28;20028;-58
2023/12/31 08:01:15;;;;;;;0.30;0.30;;;;;;;8.94;100.00;99374.13;5092564;28;20370;-58
2023/12/31 08:03:41;;;;;;;0.20;0.20;;;;;;;8.96;100.00;99370.72;5093096;28;20506;-58
2023/12/31 08:06:06;;;;;;;0.20;0.20;;;;;;;8.94;100.00;99367.25;5093318;28;20377;-58
2023/12/31 08:08:31;;;;;;;0.20;0.20;;;;;;;8.96;100.00;99364.72;5092413;28;20375;-58
2023/12/31 08:10:59;;;;;;;0.30;0.30;;;;;;;8.97;100.00;99357.00;5092857;28;20082;-57
2023/12/31 08:13:24;;;;;;;0.30;0.30;;;;;;;9.01;100.00;99357.91;5092766;28;20028;-58
2023/12/31 08:15:49;;;;;;;0.30;0.30;;;;;;;9.05;100.00;99360.56;5092603;28;20043;-58
2023/12/31 08:18:15;;;;;;;0.20;0.20;;;;;;;9.05;100.00;99360.56;5092355;28;20024;-58
2023/12/31 08:20:40;;;;;;;0.30;0.30;;;;;;;9.16;100.00;99354.69;5092884;28;20387;-58
2023/12/31 08:23:06;;;;;;;0.30;0.30;;;;;;;9.22;100.00;99357.31;5092317;28;20062;-58
2023/12/31 08:25:31;;;;;;;0.20;0.20;;;;;;;9.24;100.00;99355.59;5092457;28;20016;-58
2023/12/31 08:27:56;;;;;;;0.22;0.22;;;;;;;9.26;100.00;99364.22;5093033;28;20032;-58
2023/12/31 08:30:22;;;;;;;0.30;0.30;;;;;;;9.31;100.00;99356.53;5092150;28;20028;-58
2023/12/31 08:32:47;;;;;;;0.20;0.20;;;;;;;9.29;100.00;99355.66;5092739;28;20516;-58
2023/12/31 08:35:13;;;;;;;0.20;0.20;;;;;;;9.22;100.00;99352.19;5092528;28;20032;-58
2023/12/31 08:37:39;;;;;;;0.20;0.20;;;;;;;9.20;100.00;99343.56;5092200;28;20031;-57
2023/12/31 08:40:05;;;;;;;0.20;0.20;;;;;;;9.17;100.00;99352.13;5092511;28;20149;-57
2023/12/31 08:42:30;;;;;;;0.20;0.20;;;;;;;9.14;100.00;99338.34;5092309;28;20031;-58
2023/12/31 08:44:56;;;;;;;0.20;0.20;;;;;;;9.06;100.00;99361.41;5092302;28;20441;-57
2023/12/31 08:47:21;;;;;;;0.20;0.20;;;;;;;9.05;100.00;99344.25;5092293;28;20016;-58
2023/12/31 08:49:46;;;;;;;0.30;0.30;;;;;;;8.97;100.00;99345.88;5092424;28;20387;-58
2023/12/31 08:52:11;;;;;;;0.30;0.30;;;;;;;8.90;100.00;99357.81;5091708;28;20031;-58
2023/12/31 08:54:37;;;;;;;0.30;0.30;;;;;;;8.84;100.00;99358.56;5092743;28;20082;-58
2023/12/31 08:57:02;;;;;;;0.28;0.28;;;;;;;8.78;100.00;99349.94;5092733;28;20032;-57
2023/12/31 08:59:27;;;;;;;0.30;0.30;;;;;;;8.72;100.00;99353.28;5092012;28;20024;-58
2023/12/31 09:01:53;;;;;;;0.20;0.20;;;;;;;8.71;100.00;99324.19;5092562;28;20068;-57
2023/12/31 09:04:19;;;;;;;0.20;0.20;;;;;;;8.68;100.00;99344.69;5092084;28;20028;-57
2023/12/31 09:06:46;;;;;;;0.20;0.20;;;;;;;8.63;100.00;99354.03;5092403;28;20115;-57
2023/12/31 09:09:11;;;;;;;0.30;0.30;;;;;;;8.59;100.00;99353.97;5092193;28;20107;-57
2023/12/31 09:11:36;;;;;;;0.30;0.30;;;;;;;8.52;100.00;99345.31;5091480;28;20102;-57
2023/12/31 09:14:01;;;;;;;0.28;0.28;;;;;;;8.49;100.00;99363.25;5092114;28;20065;-58
2023/12/31 09:16:27;;;;;;;0.25;0.25;;;;;;;8.41;100.00;99369.09;5092364;28;20103;-58
2023/12/31 09:18:52;;;;;;;0.30;0.30;;;;;;;8.38;100.00;99371.63;5091942;28;20073;-57
2023/12/31 09:21:17;;;;;;;0.20;0.20;;;;;;;8.33;100.00;99367.28;5091903;28;20071;-58
2023/12/31 09:23:43;;;;;;;0.20;0.20;;;;;;;8.33;100.00;99367.28;5092349;28;20086;-58
2023/12/31 09:26:08;;;;;;;0.20;0.20;;;;;;;8.31;100.00;99384.34;5092080;28;20371;-58
2023/12/31 09:28:33;;;;;;;0.20;0.20;;;;;;;8.31;100.00;99379.22;5091901;28;20032;-58
2023/12/31 09:30:59;;;;;;;0.30;0.30;;;;;;;8.35;100.00;99381.88;5092294;28;20058;-58
2023/12/31 09:33:24;;;;;;;0.30;0.30;;;;;;;8.36;100.00;99369.88;5091425;28;20024;-57
2023/12/31 09:35:49;;;;;;;0.20;0.20;;;;;;;8.36;100.00;99382.72;5094309;28;20023;-58
2023/12/31 09:38:15;;;;;;;0.30;0.30;;;;;;;8.40;100.00;99380.22;5095681;28;20024;-57
2023/12/31 09:40:42;;;;;;;0.20;0.20;;;;;;;8.42;100.00;99382.81;5095401;28;20024;-58
2023/12/31 09:43:09;;;;;;;0.20;0.20;;;;;;;8.45;100.00;99390.53;5095851;28;20027;-58
2023/12/31 09:45:34;;;;;;;0.25;0.25;;;;;;;8.46;100.00;99389.75;5096026;28;20020;-58
2023/12/31 09:48:01;;;;;;;0.22;0.22;;;;;;;8.50;100.00;99403.50;5094978;28;20150;-58
2023/12/31 09:50:27;;;;;;;0.30;0.30;;;;;;;8.49;100.00;99389.78;5095207;28;20024;-58
2023/12/31 09:52:55;;;;;;;0.30;0.30;;;;;;;8.51;100.00;99400.09;5094949;28;20110;-57
2023/12/31 09:55:22;;;;;;;0.30;0.30;;;;;;;8.53;100.00;99399.28;5111138;28;20119;-57
2023/12/31 09:57:52;;;;;;;0.20;0.20;;;;;;;8.54;100.00;99413.81;5115536;28;20571;-57
2023/12/31 10:00:18;;;;;;;0.30;0.30;;;;;;;8.52;100.00;99414.63;5115498;28;20383;-58
2023/12/31 10:02:44;;;;;;;0.30;0.30;;;;;;;8.51;100.00;99424.06;5115029;28;20064;-57
2023/12/31 10:05:10;;;;;;;0.28;0.28;;;;;;;8.55;100.00;99428.38;5114783;28;20027;-58
2023/12/31 10:07:35;;;;;;;0.30;0.30;;;;;;;8.60;100.00;99419.88;5115098;28;20528;-58
2023/12/31 10:10:03;;;;;;;0.30;0.30;;;;;;;8.61;100.00;99413.91;5098062;28;20040;-57
2023/12/31 10:12:29;;;;;;;0.30;0.30;;;;;;;8.63;100.00;99407.97;5095105;28;20027;-57
2023/12/31 10:14:55;;;;;;;0.20;0.20;;;;;;;8.64;100.00;99398.56;5094844;28;20082;-58
2023/12/31 10:17:20;;;;;;;0.30;0.30;;;;;;;8.66;100.00;99399.44;5094633;28;20028;-58
2023/12/31 10:19:45;;;;;;;0.20;0.20;;;;;;;8.70;100.00;99406.34;5095106;28;20453;-58
2023/12/31 10:22:12;;;;;;;0.30;0.30;;;;;;;8.74;100.00;99410.69;5094102;28;20024;-59
2023/12/31 10:24:37;;;;;;;0.20;0.20;;;;;;;8.75;100.00;99416.69;5094791;28;20024;-58
2023/12/31 10:27:04;;;;;;;0.30;0.30;;;;;;;8.72;100.00;99396.94;5095006;28;20027;-58
2023/12/31 10:29:32;;;;;;;0.30;0.30;;;;;;;8.68;100.00;99395.19;5094089;28;20115;-58
2023/12/31 10:31:57;;;;;;;0.30;0.30;;;;;;;8.62;100.00;99400.25;5094291;28;20028;-58
2023/12/31 10:34:23;;;;;;;0.30;0.30;;;;;;;8.48;100.00;99397.47;5094510;28;20103;-58
2023/12/31 10:36:48;;;;;;;0.30;0.30;;;;;;;8.32;100.00;99397.19;5094401;28;20028;-59
2023/12/31 10:39:27;;;;;;;0.25;0.25;;;;;;;8.18;100.00;99409.81;5094353;28;20035;-58
2023/12/31 10:41:56;;;;;;;0.20;0.20;;;;;;;8.02;100.00;99415.56;5094770;28;20361;-58
2023/12/31 10:44:23;;;;;;;0.22;0.22;;;;;;;7.91;100.00;99416.25;5093618;28;20395;-58
2023/12/31 10:46:52;;;;;;;0.20;0.20;;;;;;;7.86;100.00;99415.28;5093599;28;20038;-57
2023/12/31 10:49:22;;;;;;;0.30;0.30;;;;;;;7.79;100.00;99417.72;5094090;28;20089;-57
2023/12/31 10:51:50;;;;;;;0.30;0.30;;;;;;;7.69;100.00;99417.53;5093994;28;20028;-57
2023/12/31 10:54:26;;;;;;;0.30;0.30;;;;;;;7.63;100.00;99414.00;5094244;28;20072;-58
2023/12/31 10:56:53;;;;;;;0.30;0.30;;;;;;;7.58;100.00;99422.47;5093749;28;20501;-58
2023/12/31 10:59:19;;;;;;;0.20;0.20;;;;;;;7.59;100.00;99415.63;5093703;28;20444;-58
2023/12/31 11:01:46;;;;;;;0.30;0.30;;;;;;;7.56;100.00;99410.47;5094626;28;20066;-57
2023/12/31 11:04:13;;;;;;;0.30;0.30;;;;;;;7.57;100.00;99405.34;5093625;28;20028;-58
2023/12/31 11:06:40;;;;;;;0.20;0.20;;;;;;;7.60;100.00;99406.25;5094026;28;20024;-58
2023/12/31 11:09:06;;;;;;;0.20;0.20;;;;;;;7.64;100.00;99390.09;5094083;28;20035;-58
2023/12/31 11:11:31;;;;;;;0.30;0.30;;;;;;;7.72;100.00;99421.84;5093182;28;20016;-58
2023/12/31 11:13:58;;;;;;;0.30;0.30;;;;;;;7.74;100.00;99402.25;5093826;28;20490;-58
2023/12/31 11:16:41;;;;;;;0.20;0.20;;;;;;;7.83;100.00;99411.81;5093612;28;20103;-58
2023/12/31 11:19:34;;;;;;;0.30;0.30;;;;;;;7.83;100.00;99417.78;5093542;28;20047;-58
2023/12/31 11:22:08;;;;;;;0.20;0.20;;;;;;;7.87;100.00;99416.16;5094024;28;20039;-57
2023/12/31 11:24:33;;;;;;;0.30;0.30;;;;;;;7.93;100.00;99413.69;5093435;28;20069;-58